Weather at Glasgow Prestwick Airport

Public forecast

Using degrees Celsius for public forecast. Weather courtesy of forecast.io.

Current aviation weather report (METAR) for Glasgow Prestwick Airport

Retrieved 2021/09/21 14:20 UTC (0 seconds ago):

EGPK 211420Z 24012KT 9999 FEW020 16/13 Q1028

Aviation forecast (TAF) for Glasgow Prestwick Airport

Retrieved 2021/09/21 12:00 UTC (2 hours ago):

TAF EGPK 211057Z 2112/2212 23010KT 9999 SCT020 TEMPO 2118/2122 8000 -RA BKN010 TEMPO 2120/2209 24015G25KT PROB30 TEMPO 2122/2209 BKN014 TEMPO 2209/2212 24018G30KT BKN014 PROB30 TEMPO 2209/2212 8000 -RA BKN009